Time;durP1;ratioP1;P1;durP2;ratioP2;P2;SDS_P1;SDS_P2;PMS_P1;PMS_P2;Temp;Humidity;BMP_temperature;BMP_pressure;BME280_temperature;BME280_humidity;BME280_pressure;Samples;Min_cycle;Max_cycle;Signal;HPM_P1;HPM_P2
2021/09/27 00:00:19;;;;;;;5.85;1.98;;;;;;;8.90;76.26;100142.97;1752003;81;20976;-66
2021/09/27 00:02:45;;;;;;;4.33;1.70;;;;;;;8.89;76.16;100145.39;1768291;81;21036;-66
2021/09/27 00:05:13;;;;;;;4.50;1.67;;;;;;;8.85;76.17;100150.23;1771731;81;20996;-66
2021/09/27 00:07:40;;;;;;;3.02;1.27;;;;;;;8.78;76.16;100140.92;1769713;81;21082;-67
2021/09/27 00:10:07;;;;;;;3.95;1.47;;;;;;;8.76;76.09;100158.50;1749371;81;20968;-66
2021/09/27 00:12:35;;;;;;;3.92;1.75;;;;;;;8.73;75.94;100161.19;1758363;81;21036;-66
2021/09/27 00:15:01;;;;;;;3.75;1.52;;;;;;;8.70;75.92;100167.12;1751296;80;21592;-66
2021/09/27 00:17:28;;;;;;;4.12;1.95;;;;;;;8.66;75.90;100166.50;1747924;82;21023;-67
2021/09/27 00:19:54;;;;;;;4.58;1.70;;;;;;;8.55;76.11;100165.53;1755111;81;21525;-66
2021/09/27 00:22:20;;;;;;;3.65;1.70;;;;;;;8.45;76.36;100164.84;1748182;81;21506;-66
2021/09/27 00:24:47;;;;;;;4.50;1.70;;;;;;;8.46;76.27;100169.20;1755520;81;21011;-67
2021/09/27 00:27:13;;;;;;;4.08;1.52;;;;;;;8.46;76.15;100169.73;1748056;82;21848;-67
2021/09/27 00:29:40;;;;;;;6.85;1.47;;;;;;;8.36;76.10;100160.88;1766687;81;21497;-67
2021/09/27 00:32:06;;;;;;;3.47;1.80;;;;;;;8.27;76.40;100164.23;1753196;81;21030;-67
2021/09/27 00:34:32;;;;;;;4.62;2.00;;;;;;;8.18;76.74;100165.19;1771601;81;21027;-67
2021/09/27 00:38:26;;;;;;;3.98;1.42;;;;;;;8.18;76.98;100167.90;1802096;79;22770;-67
2021/09/27 00:40:59;;;;;;;2.72;1.57;;;;;;;8.14;77.07;100172.70;1761058;80;21030;-67
2021/09/27 00:43:27;;;;;;;3.37;1.50;;;;;;;8.14;77.13;100172.16;1745689;82;21372;-67
2021/09/27 00:45:57;;;;;;;3.87;1.72;;;;;;;8.08;77.24;100174.48;1741472;82;20991;-68
2021/09/27 00:48:24;;;;;;;4.03;1.92;;;;;;;8.01;77.61;100177.88;1734718;80;21054;-67
2021/09/27 00:50:55;;;;;;;5.25;1.60;;;;;;;7.95;77.75;100175.63;1697846;83;21528;-67
2021/09/27 00:53:29;;;;;;;4.12;1.80;;;;;;;7.92;77.69;100175.28;1688843;84;21058;-67
2021/09/27 00:55:56;;;;;;;4.55;1.75;;;;;;;7.85;77.72;100174.62;1727184;83;20991;-67
2021/09/27 00:58:22;;;;;;;4.80;2.12;;;;;;;7.79;77.89;100172.89;1673830;84;21113;-67
2021/09/27 01:00:48;;;;;;;3.80;1.70;;;;;;;7.71;78.09;100175.98;1704239;83;21030;-67
2021/09/27 01:03:15;;;;;;;3.55;1.72;;;;;;;7.67;78.27;100172.10;1691274;83;21050;-67
2021/09/27 01:05:47;;;;;;;4.80;1.60;;;;;;;7.64;78.20;100174.77;1691269;83;21045;-67
2021/09/27 01:08:34;;;;;;;3.72;1.60;;;;;;;7.65;78.02;100176.39;1690915;85;21018;-66
2021/09/27 01:11:23;;;;;;;3.30;1.80;;;;;;;7.66;77.98;100178.58;1644208;84;20975;-67
2021/09/27 01:14:33;;;;;;;6.15;1.67;;;;;;;7.61;78.11;100182.56;1693055;82;20997;-67
2021/09/27 01:17:30;;;;;;;6.03;1.70;;;;;;;7.51;78.45;100181.28;1705701;83;21765;-67
2021/09/27 01:20:11;;;;;;;6.08;1.50;;;;;;;7.49;78.70;100184.78;1675168;85;21022;-66
2021/09/27 01:23:06;;;;;;;4.53;1.50;;;;;;;7.51;78.72;100186.70;1677808;85;21597;-66
2021/09/27 01:26:17;;;;;;;3.75;1.75;;;;;;;7.47;78.80;100186.89;1688343;83;21072;-66
2021/09/27 01:29:24;;;;;;;3.17;1.50;;;;;;;7.40;78.86;100184.84;1675551;85;21022;-66
2021/09/27 01:32:13;;;;;;;3.70;1.50;;;;;;;7.35;78.87;100179.34;1633823;84;21151;-65
2021/09/27 01:35:03;;;;;;;5.40;1.60;;;;;;;7.32;78.70;100187.95;1713122;84;21035;-66
2021/09/27 01:37:38;;;;;;;4.55;1.30;;;;;;;7.31;78.75;100186.30;1704170;83;21730;-67
2021/09/27 01:40:30;;;;;;;4.87;1.50;;;;;;;7.30;78.88;100195.48;1699771;84;21585;-66
2021/09/27 01:43:02;;;;;;;5.15;1.60;;;;;;;7.27;79.01;100200.02;1681341;84;21086;-66
2021/09/27 01:45:43;;;;;;;5.60;1.40;;;;;;;7.20;79.39;100198.50;1640806;87;20975;-66
2021/09/27 01:48:30;;;;;;;5.30;1.47;;;;;;;7.19;79.60;100201.73;1642921;86;21059;-67
2021/09/27 01:51:13;;;;;;;2.45;1.30;;;;;;;7.20;79.60;100206.63;1662984;86;21019;-67
2021/09/27 01:53:48;;;;;;;3.72;1.50;;;;;;;7.20;79.79;100207.45;1663881;86;21632;-67
2021/09/27 01:56:39;;;;;;;5.03;1.60;;;;;;;7.17;80.21;100209.29;1637484;87;21530;-70
2021/09/27 01:59:19;;;;;;;4.42;1.50;;;;;;;7.16;80.65;100219.81;1649423;86;21039;-70
2021/09/27 02:02:03;;;;;;;6.67;1.70;;;;;;;7.21;80.65;100211.81;1661363;86;21090;-70
2021/09/27 02:04:41;;;;;;;5.60;1.60;;;;;;;7.27;80.69;100211.38;1665199;86;21062;-69
2021/09/27 02:07:08;;;;;;;4.03;1.50;;;;;;;7.28;80.72;100217.09;1652525;86;21046;-68
2021/09/27 02:09:59;;;;;;;4.22;1.40;;;;;;;7.24;80.96;100211.34;1659442;86;21059;-67
2021/09/27 02:12:34;;;;;;;3.95;1.52;;;;;;;7.26;81.07;100211.11;1652961;86;21054;-70
2021/09/27 02:15:14;;;;;;;8.18;1.65;;;;;;;7.29;81.03;100218.23;1658627;86;21537;-70
2021/09/27 02:17:52;;;;;;;5.12;1.55;;;;;;;7.32;80.98;100216.92;1693181;84;21070;-67
2021/09/27 02:20:29;;;;;;;4.20;1.55;;;;;;;7.30;81.06;100223.09;1701563;84;21564;-68
2021/09/27 02:23:19;;;;;;;3.10;1.60;;;;;;;7.23;81.26;100223.22;1693986;84;21131;-68
2021/09/27 02:25:45;;;;;;;4.80;1.90;;;;;;;7.25;81.30;100224.34;1678920;84;20987;-67
2021/09/27 02:28:15;;;;;;;3.15;1.35;;;;;;;7.29;81.18;100228.23;1628066;87;21072;-68
2021/09/27 02:31:09;;;;;;;4.03;1.50;;;;;;;7.32;81.11;100226.39;1651423;86;21019;-68
2021/09/27 02:34:07;;;;;;;5.17;1.75;;;;;;;7.29;81.14;100226.35;1660526;86;21015;-67
2021/09/27 02:36:45;;;;;;;5.60;1.85;;;;;;;7.23;81.30;100229.98;1699052;84;21570;-68
2021/09/27 02:39:38;;;;;;;3.95;1.47;;;;;;;7.24;81.29;100219.46;1676809;84;21071;-67
2021/09/27 02:42:38;;;;;;;3.47;1.57;;;;;;;7.26;81.13;100226.00;1688944;84;21086;-69
2021/09/27 02:45:06;;;;;;;3.98;1.45;;;;;;;7.27;81.10;100224.92;1680295;84;21027;-68
2021/09/27 02:47:46;;;;;;;3.35;1.32;;;;;;;7.20;81.19;100220.99;1680585;84;21612;-68
2021/09/27 02:50:17;;;;;;;4.67;1.80;;;;;;;7.15;81.37;100229.02;1673761;84;21020;-71
2021/09/27 02:52:44;;;;;;;5.00;1.90;;;;;;;7.16;81.42;100234.70;1634278;87;21051;-68
2021/09/27 02:55:15;;;;;;;3.33;1.47;;;;;;;7.19;81.36;100236.94;1642350;86;21015;-66
2021/09/27 02:58:08;;;;;;;3.98;1.50;;;;;;;7.20;81.36;100237.77;1686200;84;21919;-69
2021/09/27 03:00:52;;;;;;;4.03;1.55;;;;;;;7.15;81.50;100235.80;1696312;84;21036;-69
2021/09/27 03:03:59;;;;;;;3.85;1.57;;;;;;;7.11;81.60;100234.61;1694846;84;21055;-70
2021/09/27 03:06:40;;;;;;;2.58;1.15;;;;;;;7.13;81.52;100238.42;1675794;84;21078;-67
2021/09/27 03:09:20;;;;;;;8.65;2.02;;;;;;;7.13;81.44;100237.06;1675208;84;21035;-70
2021/09/27 03:12:13;;;;;;;3.30;1.60;;;;;;;7.06;81.58;100238.55;1640042;87;21122;-67
2021/09/27 03:15:30;;;;;;;4.75;1.80;;;;;;;7.02;81.72;100234.66;1646897;86;20969;-70
2021/09/27 03:18:22;;;;;;;3.50;1.30;;;;;;;7.03;81.57;100236.32;1647997;86;21047;-69
2021/09/27 03:21:39;;;;;;;4.22;1.60;;;;;;;7.00;81.59;100234.09;1655769;86;20951;-70
2021/09/27 03:24:40;;;;;;;6.00;1.42;;;;;;;6.90;81.73;100237.92;1646288;86;21035;-70
2021/09/27 03:27:30;;;;;;;3.20;1.25;;;;;;;6.87;81.84;100237.05;1638514;86;21134;-70
2021/09/27 03:30:08;;;;;;;4.00;1.30;;;;;;;6.88;81.74;100241.38;1638261;87;21084;-71
2021/09/27 03:32:55;;;;;;;5.05;1.37;;;;;;;6.89;81.67;100237.62;1689852;84;21130;-70
2021/09/27 03:35:44;;;;;;;5.00;1.82;;;;;;;6.88;81.63;100244.08;1695750;84;21560;-71
2021/09/27 03:38:19;;;;;;;5.05;2.00;;;;;;;6.81;81.78;100245.55;1653466;85;21047;-70
2021/09/27 03:41:08;;;;;;;4.10;1.45;;;;;;;6.81;81.79;100242.84;1685591;84;21018;-70
2021/09/27 03:43:49;;;;;;;7.17;2.25;;;;;;;6.85;81.62;100246.73;1742965;82;21490;-69
2021/09/27 03:46:37;;;;;;;5.55;1.50;;;;;;;6.86;81.45;100253.80;1739236;82;21098;-69
2021/09/27 03:49:15;;;;;;;5.50;1.70;;;;;;;6.83;81.46;100253.45;1753084;82;21605;-70
2021/09/27 03:51:49;;;;;;;5.00;1.82;;;;;;;6.76;81.62;100250.87;1725790;82;21067;-70
2021/09/27 03:54:35;;;;;;;4.65;1.75;;;;;;;6.74;81.60;100252.14;1737546;82;21046;-70
2021/09/27 03:57:26;;;;;;;6.10;1.42;;;;;;;6.76;81.46;100257.63;1728677;82;21074;-70
2021/09/27 04:00:16;;;;;;;5.12;1.55;;;;;;;6.76;81.33;100256.28;1724488;82;21482;-70
2021/09/27 04:02:54;;;;;;;4.42;2.05;;;;;;;6.69;81.37;100252.86;1726897;82;21121;-70
2021/09/27 04:05:35;;;;;;;6.08;1.57;;;;;;;6.58;81.67;100257.72;1723483;83;21007;-71
2021/09/27 04:08:30;;;;;;;2.70;1.40;;;;;;;6.54;81.91;100256.53;1741251;82;21475;-71
2021/09/27 04:11:14;;;;;;;5.35;1.50;;;;;;;6.55;81.92;100256.84;1749864;82;21580;-71
2021/09/27 04:14:08;;;;;;;5.25;1.50;;;;;;;6.50;82.00;100256.17;1742165;82;21026;-71
2021/09/27 04:17:04;;;;;;;4.17;1.57;;;;;;;6.49;82.16;100269.92;1752716;82;21051;-72
2021/09/27 04:19:51;;;;;;;4.85;1.45;;;;;;;6.43;82.49;100264.92;1735131;82;21026;-72
2021/09/27 04:22:35;;;;;;;2.72;1.30;;;;;;;6.46;82.55;100271.22;1736919;82;21039;-71
2021/09/27 04:25:28;;;;;;;2.77;1.20;;;;;;;6.52;82.42;100269.45;1751098;82;20975;-72
2021/09/27 04:28:35;;;;;;;4.37;1.30;;;;;;;6.57;82.29;100268.77;1749801;82;21112;-72
2021/09/27 04:31:42;;;;;;;4.35;1.67;;;;;;;6.57;82.31;100264.70;1727052;82;21007;-71
2021/09/27 04:34:29;;;;;;;3.60;1.47;;;;;;;6.53;82.64;100265.70;1725414;82;21030;-71
2021/09/27 04:36:56;;;;;;;2.62;1.20;;;;;;;6.58;82.69;100263.13;1739272;82;21015;-70
2021/09/27 04:39:24;;;;;;;3.00;1.10;;;;;;;6.68;82.59;100266.61;1744183;82;21445;-68
2021/09/27 04:42:26;;;;;;;2.83;1.20;;;;;;;6.71;82.60;100268.84;1753392;82;21106;-67
2021/09/27 04:45:21;;;;;;;4.62;1.75;;;;;;;6.70;82.74;100259.06;1731166;81;20980;-67
2021/09/27 04:48:38;;;;;;;6.08;1.45;;;;;;;6.76;82.83;100259.51;1734636;82;21055;-67
2021/09/27 04:51:22;;;;;;;2.42;1.42;;;;;;;6.82;82.74;100258.56;1726890;82;21027;-72
2021/09/27 04:54:08;;;;;;;4.50;1.57;;;;;;;6.85;82.86;100260.80;1733922;82;20991;-68
2021/09/27 04:57:03;;;;;;;3.85;2.00;;;;;;;6.84;83.14;100264.55;1728412;82;21074;-67
2021/09/27 05:00:05;;;;;;;4.70;1.80;;;;;;;6.94;83.26;100258.84;1743713;81;20983;-69
2021/09/27 05:03:18;;;;;;;4.30;1.80;;;;;;;7.14;83.23;100253.09;1744476;82;21603;-69
2021/09/27 05:06:08;;;;;;;4.50;1.98;;;;;;;7.39;83.24;100260.95;1751948;82;20962;-69
2021/09/27 05:08:55;;;;;;;3.95;1.90;;;;;;;7.56;83.17;100251.02;1734956;82;21552;-68
2021/09/27 05:11:48;;;;;;;4.92;2.25;;;;;;;7.82;82.97;100259.13;1730732;82;21651;-72
2021/09/27 05:14:24;;;;;;;5.47;2.00;;;;;;;8.12;82.33;100256.98;1738761;82;21603;-68
2021/09/27 05:17:01;;;;;;;5.97;2.52;;;;;;;8.39;81.76;100256.72;1667345;85;21475;-69
2021/09/27 05:20:03;;;;;;;4.12;2.12;;;;;;;8.63;81.27;100263.34;1723244;82;21078;-69
2021/09/27 05:22:51;;;;;;;4.85;1.95;;;;;;;8.78;81.00;100271.22;1742757;82;21597;-68
2021/09/27 05:25:53;;;;;;;3.02;1.95;;;;;;;9.06;80.16;100271.64;1723840;83;20984;-67
2021/09/27 05:28:34;;;;;;;4.78;1.95;;;;;;;9.25;79.15;100269.45;1737926;82;20975;-68
2021/09/27 05:31:24;;;;;;;4.00;2.33;;;;;;;9.35;78.56;100270.42;1735664;82;20983;-67
2021/09/27 05:34:11;;;;;;;3.65;1.65;;;;;;;9.54;78.52;100272.31;1723349;83;21078;-68
2021/09/27 05:36:55;;;;;;;4.30;2.00;;;;;;;9.79;77.97;100278.60;1723536;83;21597;-69
2021/09/27 05:40:16;;;;;;;4.28;2.02;;;;;;;9.93;76.78;100279.33;1739116;82;21090;-69
2021/09/27 05:42:57;;;;;;;4.50;2.25;;;;;;;10.02;76.25;100278.89;1750763;82;21067;-68
2021/09/27 05:46:03;;;;;;;3.50;2.02;;;;;;;10.03;75.81;100275.06;1746146;82;20967;-68
2021/09/27 05:48:37;;;;;;;4.60;2.22;;;;;;;10.22;75.49;100278.59;1728222;81;21426;-68
2021/09/27 05:51:13;;;;;;;3.62;2.00;;;;;;;10.22;74.76;100277.23;1683975;85;21055;-68
2021/09/27 05:54:05;;;;;;;3.77;2.08;;;;;;;10.15;74.63;100275.79;1734429;82;21102;-69
2021/09/27 05:57:01;;;;;;;6.15;2.40;;;;;;;10.04;74.33;100269.39;1734450;82;21093;-67
2021/09/27 05:59:39;;;;;;;3.98;1.92;;;;;;;10.12;74.80;100268.94;1740569;82;21062;-69
2021/09/27 06:02:45;;;;;;;4.58;2.10;;;;;;;10.33;75.36;100272.72;1725350;82;21043;-68
2021/09/27 06:05:27;;;;;;;4.30;1.75;;;;;;;10.58;74.93;100272.97;1753360;82;20996;-69
2021/09/27 06:08:18;;;;;;;4.30;1.90;;;;;;;10.98;74.67;100277.93;1752569;82;21043;-68
2021/09/27 06:10:58;;;;;;;4.97;2.08;;;;;;;11.35;73.58;100279.25;1741783;81;21014;-70
2021/09/27 06:13:34;;;;;;;5.53;2.30;;;;;;;11.51;72.31;100266.53;1738650;82;21015;-68
2021/09/27 06:16:25;;;;;;;4.35;1.50;;;;;;;11.53;71.85;100277.45;1753238;82;20999;-71
2021/09/27 06:19:13;;;;;;;4.45;1.60;;;;;;;11.68;71.19;100278.06;1752879;82;21054;-67
2021/09/27 06:22:13;;;;;;;4.12;1.90;;;;;;;11.76;70.90;100281.12;1753168;81;21069;-69
2021/09/27 06:24:57;;;;;;;4.90;1.82;;;;;;;12.03;71.19;100280.97;1733517;82;21114;-71
2021/09/27 06:28:11;;;;;;;3.47;1.87;;;;;;;12.42;70.11;100284.89;1710080;82;21562;-68
2021/09/27 06:30:49;;;;;;;7.60;1.57;;;;;;;12.58;68.98;100283.52;1725583;82;20983;-71
2021/09/27 06:33:43;;;;;;;4.17;1.92;;;;;;;12.75;68.73;100278.64;1723673;83;21074;-69
2021/09/27 06:36:13;;;;;;;3.20;1.52;;;;;;;12.86;67.29;100281.08;1729155;82;21047;-69
2021/09/27 06:38:40;;;;;;;5.92;1.55;;;;;;;12.89;66.83;100276.43;1723493;82;21039;-67
2021/09/27 06:41:17;;;;;;;3.20;1.72;;;;;;;12.90;65.83;100278.63;1716639;82;21066;-70
2021/09/27 06:43:43;;;;;;;4.15;1.80;;;;;;;12.99;66.08;100278.36;1752514;82;21051;-70
2021/09/27 06:46:10;;;;;;;5.55;1.60;;;;;;;13.25;66.21;100275.88;1742301;82;21106;-68
2021/09/27 06:48:36;;;;;;;4.90;1.47;;;;;;;13.52;65.60;100284.31;1736203;82;21003;-70
2021/09/27 06:51:02;;;;;;;;;;;;;;;13.71;64.28;100277.95;1756000;82;21090;-71
2021/09/27 06:53:30;;;;;;;3.77;1.30;;;;;;;13.81;63.48;100282.58;1743284;82;20122;-69
2021/09/27 06:55:59;;;;;;;3.87;1.47;;;;;;;13.77;63.88;100280.95;1748196;82;21006;-69
2021/09/27 06:58:25;;;;;;;4.25;1.37;;;;;;;13.84;63.32;100274.63;1732235;82;21517;-69
2021/09/27 07:00:53;;;;;;;3.75;1.50;;;;;;;13.82;62.29;100275.45;1741693;82;20984;-69
2021/09/27 07:03:19;;;;;;;3.60;1.52;;;;;;;13.73;62.66;100279.88;1745886;82;21427;-68
2021/09/27 07:05:46;;;;;;;2.65;1.45;;;;;;;13.77;62.97;100276.03;1745857;82;21513;-69
2021/09/27 07:08:12;;;;;;;4.50;1.32;;;;;;;13.95;62.49;100278.97;1746635;82;21034;-72
2021/09/27 07:10:39;;;;;;;;;;;;;;;14.07;61.76;100281.35;1735373;82;21046;-69
2021/09/27 07:13:05;;;;;;;4.30;1.30;;;;;;;14.29;62.05;100279.05;1743433;82;20424;-70
2021/09/27 07:15:32;;;;;;;2.05;1.12;;;;;;;14.50;61.56;100283.88;1740936;82;21028;-67
2021/09/27 07:17:58;;;;;;;2.72;1.00;;;;;;;14.60;60.21;100282.98;1723141;82;21366;-68
2021/09/27 07:20:26;;;;;;;;;;;;;;;14.67;59.85;100280.19;1740490;82;21034;-70
2021/09/27 07:22:55;;;;;;;2.42;1.20;;;;;;;14.72;59.37;100286.19;1732618;82;20110;-66
2021/09/27 07:25:25;;;;;;;1.92;1.00;;;;;;;14.68;58.81;100288.68;1691730;82;21014;-68
2021/09/27 09:17:44;;;;;;;8.15;5.67;;;;;;;12.36;60.50;100291.41;1704396;83;21532;-71
2021/09/27 09:20:26;;;;;;;3.60;2.10;;;;;;;12.48;60.49;100294.72;1697060;84;21686;-72
2021/09/27 09:22:55;;;;;;;4.62;1.90;;;;;;;12.56;60.42;100295.28;1688107;85;21108;-73
2021/09/27 09:25:38;;;;;;;3.37;0.88;;;;;;;13.10;62.09;100288.23;1694949;84;20991;-73
2021/09/27 09:28:08;;;;;;;1.05;0.60;;;;;;;14.15;60.72;100286.25;1674548;84;20963;-71
2021/09/27 09:30:47;;;;;;;2.70;0.57;;;;;;;15.10;56.58;100277.64;1702704;82;20968;-71
2021/09/27 09:33:43;;;;;;;1.00;0.40;;;;;;;15.52;53.90;100273.67;1701284;84;20931;-73
2021/09/27 09:36:20;;;;;;;0.65;0.40;;;;;;;15.84;53.77;100268.35;1697811;84;21731;-73
2021/09/27 09:38:47;;;;;;;1.05;0.40;;;;;;;16.04;52.27;100270.59;1705489;84;21007;-73
2021/09/27 09:41:14;;;;;;;2.12;0.45;;;;;;;16.01;50.92;100275.30;1707011;82;21067;-74
2021/09/27 09:43:45;;;;;;;1.12;0.50;;;;;;;15.82;50.37;100271.95;1696428;84;21027;-76
2021/09/27 09:46:16;;;;;;;0.72;0.45;;;;;;;15.62;50.09;100273.58;1679608;82;21604;-74
2021/09/27 09:49:06;;;;;;;1.30;0.62;;;;;;;15.32;49.99;100273.86;1687620;84;21453;-73
2021/09/27 09:51:45;;;;;;;2.55;1.02;;;;;;;15.06;51.10;100274.66;1708317;84;21075;-74
2021/09/27 09:54:23;;;;;;;1.10;0.60;;;;;;;14.98;51.93;100282.70;1689985;84;21083;-73
2021/09/27 09:57:05;;;;;;;0.82;0.60;;;;;;;14.96;51.18;100278.86;1700780;82;21585;-73
2021/09/27 09:59:40;;;;;;;2.75;1.12;;;;;;;14.85;50.50;100280.87;1627196;88;21060;-72
2021/09/27 10:02:17;;;;;;;2.58;1.20;;;;;;;14.76;49.92;100276.30;1643756;87;21146;-72
2021/09/27 10:04:53;;;;;;;3.75;0.85;;;;;;;14.57;49.73;100283.55;1693990;84;21007;-73
2021/09/27 10:07:26;;;;;;;;;;;;;;;14.32;49.28;100277.66;1709824;84;21111;-73
2021/09/27 10:10:00;;;;;;;2.30;1.40;;;;;;;14.10;49.98;100282.16;1706975;84;20419;-72
2021/09/27 10:12:41;;;;;;;2.30;1.30;;;;;;;14.00;50.78;100276.73;1707827;83;21130;-73
2021/09/27 10:15:36;;;;;;;5.85;4.20;;;;;;;14.07;50.70;100283.27;1679552;85;21604;-71
2021/09/27 10:18:32;;;;;;;4.70;1.72;;;;;;;14.10;51.49;100280.78;1704930;82;21034;-76
2021/09/27 10:21:31;;;;;;;3.47;1.52;;;;;;;14.16;51.35;100281.59;1712711;83;21929;-74
2021/09/27 10:24:22;;;;;;;6.25;4.17;;;;;;;14.12;51.01;100275.04;1712892;84;21014;-71
2021/09/27 10:39:47;;;;;;;3.17;1.90;;;;;;;15.30;48.77;100270.02;1789074;79;22497;-68
2021/09/27 10:42:18;;;;;;;1.07;0.50;;;;;;;15.30;48.93;100276.88;1756160;82;21049;-69
2021/09/27 10:44:50;;;;;;;1.30;0.40;;;;;;;15.15;48.60;100267.45;1721826;83;20999;-68
2021/09/27 10:47:21;;;;;;;1.35;0.62;;;;;;;14.94;48.59;100270.94;1720942;83;21046;-70
2021/09/27 10:50:00;;;;;;;3.10;1.70;;;;;;;14.74;49.13;100275.75;1721036;82;21070;-70
2021/09/27 10:52:50;;;;;;;3.90;2.37;;;;;;;14.63;49.81;100278.32;1693770;83;21045;-68
2021/09/27 10:55:28;;;;;;;1.87;1.02;;;;;;;14.55;50.46;100276.18;1730418;81;21090;-67
2021/09/27 10:58:09;;;;;;;0.93;0.60;;;;;;;14.34;50.38;100275.50;1698751;84;21035;-69
2021/09/27 11:00:48;;;;;;;1.47;0.30;;;;;;;14.17;50.52;100275.81;1698981;84;21548;-69
2021/09/27 11:03:26;;;;;;;2.02;0.70;;;;;;;14.08;50.86;100284.37;1698876;84;21038;-67
2021/09/27 11:06:24;;;;;;;1.42;0.70;;;;;;;14.04;51.48;100279.73;1698900;84;21070;-67
2021/09/27 11:09:07;;;;;;;5.87;3.60;;;;;;;13.99;51.72;100278.41;1696690;83;21587;-69
2021/09/27 11:11:49;;;;;;;4.00;2.40;;;;;;;13.95;52.68;100286.36;1694551;84;21038;-69
2021/09/27 11:14:23;;;;;;;3.70;2.25;;;;;;;14.00;53.33;100283.58;1695963;84;21042;-69
2021/09/27 11:17:09;;;;;;;1.60;0.82;;;;;;;13.91;52.94;100288.84;1696639;84;20967;-70
2021/09/27 11:19:39;;;;;;;2.17;1.30;;;;;;;13.84;53.48;100277.91;1669430;84;21098;-68
2021/09/27 11:22:21;;;;;;;3.52;1.70;;;;;;;13.76;54.07;100272.47;1695258;84;21018;-67
2021/09/27 11:24:52;;;;;;;4.87;1.90;;;;;;;13.78;54.51;100272.99;1694813;84;21094;-68
2021/09/27 11:27:24;;;;;;;2.80;1.35;;;;;;;13.81;54.88;100281.22;1696207;84;21030;-69
2021/09/27 11:29:54;;;;;;;3.08;1.45;;;;;;;13.83;54.61;100275.72;1696325;84;21624;-70
2021/09/27 11:32:42;;;;;;;1.57;0.80;;;;;;;13.81;54.63;100283.41;1696362;84;21074;-69
2021/09/27 11:35:34;;;;;;;2.72;1.40;;;;;;;13.76;53.92;100280.67;1696032;84;21055;-68
2021/09/27 11:38:17;;;;;;;2.65;1.50;;;;;;;13.60;54.53;100285.13;1695562;84;21086;-67
2021/09/27 11:40:45;;;;;;;1.42;0.93;;;;;;;13.54;54.83;100284.84;1679503;84;20995;-67
2021/09/27 11:43:38;;;;;;;6.15;3.98;;;;;;;13.56;54.96;100290.88;1684881;85;21097;-67
2021/09/27 11:46:21;;;;;;;2.75;1.75;;;;;;;13.55;55.32;100287.86;1653878;86;21035;-68
2021/09/27 11:48:56;;;;;;;4.97;2.72;;;;;;;13.51;55.94;100282.13;1640759;87;21160;-68
2021/09/27 11:51:26;;;;;;;6.42;3.95;;;;;;;13.50;55.97;100283.21;1639190;87;21007;-67
2021/09/27 11:54:24;;;;;;;4.42;2.75;;;;;;;13.46;56.24;100287.05;1649537;87;21585;-67
2021/09/27 11:57:13;;;;;;;;;;;;;;;13.53;56.67;100285.96;1682198;85;21525;-67
2021/09/27 12:00:20;;;;;;;4.33;3.27;;;;;;;13.51;56.90;100286.23;1670764;85;20133;-68
2021/09/27 12:02:54;;;;;;;2.45;1.55;;;;;;;13.40;57.10;100290.90;1662062;85;21100;-68
2021/09/27 12:05:29;;;;;;;3.05;1.90;;;;;;;13.36;57.83;100292.55;1648064;86;21509;-68
2021/09/27 12:08:03;;;;;;;2.25;1.30;;;;;;;13.42;58.05;100285.17;1661977;85;21606;-68
2021/09/27 12:10:40;;;;;;;1.92;1.10;;;;;;;13.48;57.85;100286.78;1651908;87;21102;-68
2021/09/27 12:13:13;;;;;;;3.17;1.32;;;;;;;13.50;57.47;100283.21;1688253;83;21031;-68
2021/09/27 12:15:44;;;;;;;2.15;1.00;;;;;;;13.56;57.37;100288.96;1707738;84;21114;-67
2021/09/27 12:18:45;;;;;;;3.33;1.20;;;;;;;13.57;56.93;100274.74;1707766;84;21636;-67
2021/09/27 12:21:30;;;;;;;3.67;1.05;;;;;;;13.59;56.74;100279.38;1707736;84;21066;-68
2021/09/27 12:24:06;;;;;;;2.05;1.20;;;;;;;13.62;57.08;100284.28;1719233;82;21030;-68
2021/09/27 12:26:37;;;;;;;;;;;;;;;13.67;56.48;100280.17;1725264;83;21013;-67
2021/09/27 12:29:19;;;;;;;6.50;3.90;;;;;;;13.67;56.44;100284.28;1718167;83;20129;-68
2021/09/27 12:32:02;;;;;;;2.15;1.22;;;;;;;13.60;56.26;100281.02;1716280;83;20995;-68
2021/09/27 12:34:45;;;;;;;2.12;0.95;;;;;;;13.60;56.70;100278.28;1715939;83;21094;-67
2021/09/27 12:37:17;;;;;;;2.75;1.35;;;;;;;13.67;56.81;100270.59;1716160;83;21072;-66
2021/09/27 12:39:45;;;;;;;2.47;1.22;;;;;;;13.71;56.91;100276.58;1717442;82;21528;-67
2021/09/27 12:42:23;;;;;;;;;;;;;;;13.72;56.58;100277.41;1720569;83;21024;-68
2021/09/27 12:45:06;;;;;;;2.47;1.55;;;;;;;13.67;56.58;100281.55;1683093;85;20153;-68
2021/09/27 12:47:32;;;;;;;2.72;2.27;;;;;;;13.52;57.06;100281.58;1677068;85;21094;-68
2021/09/27 12:50:05;;;;;;;2.42;1.70;;;;;;;13.48;57.44;100279.95;1683106;85;21398;-68
2021/09/27 12:52:44;;;;;;;2.25;1.32;;;;;;;13.43;57.61;100278.58;1730814;83;21620;-67
2021/09/27 12:55:12;;;;;;;2.77;1.57;;;;;;;13.41;57.71;100282.16;1678691;85;20979;-67
2021/09/27 12:57:47;;;;;;;3.22;1.47;;;;;;;13.38;57.62;100271.23;1701942;83;21044;-68
2021/09/27 13:00:35;;;;;;;4.78;2.10;;;;;;;13.38;57.89;100271.23;1684634;84;21059;-67
2021/09/27 13:03:07;;;;;;;6.92;4.47;;;;;;;13.36;57.94;100272.58;1683196;84;21067;-68
2021/09/27 13:05:50;;;;;;;3.80;1.90;;;;;;;13.34;57.84;100277.52;1705489;84;21513;-69
2021/09/27 13:08:26;;;;;;;4.17;1.95;;;;;;;13.32;57.63;100275.63;1681598;83;21671;-69
2021/09/27 13:10:57;;;;;;;6.33;4.10;;;;;;;13.29;57.26;100274.24;1650653;86;21027;-69
2021/09/27 13:13:33;;;;;;;4.33;2.42;;;;;;;13.23;57.52;100271.25;1666971;85;21036;-69
2021/09/27 13:16:12;;;;;;;2.98;1.62;;;;;;;13.22;57.43;100266.05;1724821;83;21060;-69
2021/09/27 13:18:43;;;;;;;4.70;2.75;;;;;;;13.17;57.46;100266.90;1684731;83;21545;-68
2021/09/27 13:21:30;;;;;;;5.03;2.08;;;;;;;13.19;57.73;100266.06;1720090;83;21550;-69
2021/09/27 13:24:10;;;;;;;3.65;1.72;;;;;;;13.22;57.77;100272.34;1730806;82;21039;-69
2021/09/27 13:26:56;;;;;;;5.28;2.33;;;;;;;13.21;57.69;100269.90;1683201;85;20975;-68
2021/09/27 13:29:37;;;;;;;5.65;2.65;;;;;;;13.09;58.14;100278.89;1719853;83;21019;-70
2021/09/27 13:32:11;;;;;;;5.20;2.85;;;;;;;13.04;58.55;100283.02;1737673;82;20963;-69
2021/09/27 13:34:48;;;;;;;2.77;1.65;;;;;;;13.04;58.90;100270.72;1720575;82;21025;-70
2021/09/27 13:37:18;;;;;;;5.70;2.40;;;;;;;13.07;58.65;100270.16;1677570;83;20988;-69
2021/09/27 13:39:46;;;;;;;5.58;2.70;;;;;;;13.07;58.70;100268.80;1729958;82;21712;-69
2021/09/27 13:42:12;;;;;;;4.80;3.02;;;;;;;13.03;58.59;100267.16;1721483;83;21498;-69
2021/09/27 13:44:52;;;;;;;4.47;2.60;;;;;;;13.07;58.96;100264.70;1721226;82;21795;-69
2021/09/27 13:47:21;;;;;;;4.75;2.08;;;;;;;13.13;58.79;100267.72;1720766;82;20960;-69
2021/09/27 13:49:47;;;;;;;4.37;2.25;;;;;;;13.15;58.77;100267.70;1684195;83;21036;-68
2021/09/27 13:52:14;;;;;;;5.47;2.00;;;;;;;13.18;59.00;100262.25;1721726;82;21002;-70
2021/09/27 13:54:42;;;;;;;4.35;2.17;;;;;;;13.24;59.11;100266.61;1725456;83;20999;-69
2021/09/27 13:57:10;;;;;;;3.72;2.20;;;;;;;13.23;59.11;100263.05;1681206;84;21049;-69
2021/09/27 13:59:37;;;;;;;4.70;2.37;;;;;;;13.18;59.36;100260.31;1679207;84;21122;-69
2021/09/27 14:02:04;;;;;;;3.42;2.22;;;;;;;13.15;59.46;100258.68;1707958;83;21585;-69
2021/09/27 14:04:30;;;;;;;11.18;8.03;;;;;;;13.09;59.44;100262.49;1709303;83;21020;-70
2021/09/27 14:06:56;;;;;;;;;;;;;;;12.97;59.68;100269.60;1720552;83;21019;-69
2021/09/27 14:09:23;;;;;;;8.28;6.53;;;;;;;12.89;60.12;100268.81;1711185;83;20106;-69
2021/09/27 14:11:50;;;;;;;25.70;20.10;;;;;;;12.77;60.36;100268.25;1714497;83;21556;-68
2021/09/27 14:14:16;;;;;;;25.90;19.17;;;;;;;12.73;60.56;100269.88;1718281;82;21526;-68
2021/09/27 14:16:43;;;;;;;9.25;6.72;;;;;;;12.73;60.62;100267.16;1715476;83;20975;-71
2021/09/27 14:19:09;;;;;;;;;;;;;;;12.78;60.65;100269.90;1722644;83;21075;-71
2021/09/27 14:21:36;;;;;;;5.50;3.08;;;;;;;12.81;60.80;100266.08;1720649;83;20119;-69
2021/09/27 14:24:06;;;;;;;3.87;2.12;;;;;;;12.72;60.96;100270.97;1719026;82;21608;-70
2021/09/27 14:26:33;;;;;;;1.98;1.45;;;;;;;12.67;61.18;100265.52;1723909;83;21002;-68
2021/09/27 14:29:01;;;;;;;4.28;1.85;;;;;;;12.65;61.25;100266.33;1726811;83;21070;-70
2021/09/27 14:31:27;;;;;;;3.50;1.72;;;;;;;12.59;61.45;100268.78;1727954;83;20956;-70
2021/09/27 14:33:55;;;;;;;2.72;1.52;;;;;;;12.54;61.77;100268.23;1683221;85;21694;-69